sensor_id;sensor_type;location;lat;lon;timestamp;temperature;humidity
9497;DHT22;4786;51.270;4.456;2023-03-23T00:02:05;13.40;99.90
9497;DHT22;4786;51.270;4.456;2023-03-23T00:04:31;13.40;99.90
9497;DHT22;4786;51.270;4.456;2023-03-23T00:06:58;13.30;99.90
9497;DHT22;4786;51.270;4.456;2023-03-23T00:09:26;13.40;99.90
9497;DHT22;4786;51.270;4.456;2023-03-23T00:11:52;13.40;99.90
9497;DHT22;4786;51.270;4.456;2023-03-23T00:14:31;13.40;99.90
9497;DHT22;4786;51.270;4.456;2023-03-23T00:17:09;13.30;99.90
9497;DHT22;4786;51.270;4.456;2023-03-23T00:19:38;13.40;99.90
9497;DHT22;4786;51.270;4.456;2023-03-23T00:22:24;13.40;99.90
9497;DHT22;4786;51.270;4.456;2023-03-23T00:24:51;13.50;99.90
9497;DHT22;4786;51.270;4.456;2023-03-23T00:27:17;13.40;99.90
9497;DHT22;4786;51.270;4.456;2023-03-23T00:29:44;13.40;99.90
9497;DHT22;4786;51.270;4.456;2023-03-23T00:32:13;13.30;99.90
9497;DHT22;4786;51.270;4.456;2023-03-23T00:34:40;13.40;99.90
9497;DHT22;4786;51.270;4.456;2023-03-23T00:37:10;13.30;99.90
9497;DHT22;4786;51.270;4.456;2023-03-23T00:39:38;13.30;99.90
9497;DHT22;4786;51.270;4.456;2023-03-23T00:42:04;13.30;99.90
9497;DHT22;4786;51.270;4.456;2023-03-23T00:44:32;13.20;99.90
9497;DHT22;4786;51.270;4.456;2023-03-23T00:47:00;13.20;99.90
9497;DHT22;4786;51.270;4.456;2023-03-23T00:49:26;13.30;99.90
9497;DHT22;4786;51.270;4.456;2023-03-23T00:51:54;13.30;99.90
9497;DHT22;4786;51.270;4.456;2023-03-23T00:54:20;13.30;99.90
9497;DHT22;4786;51.270;4.456;2023-03-23T00:56:47;13.40;99.90
9497;DHT22;4786;51.270;4.456;2023-03-23T00:59:13;13.40;99.90
9497;DHT22;4786;51.270;4.456;2023-03-23T01:01:39;13.50;99.90
9497;DHT22;4786;51.270;4.456;2023-03-23T01:04:05;13.50;99.90
9497;DHT22;4786;51.270;4.456;2023-03-23T01:06:34;13.50;99.90
9497;DHT22;4786;51.270;4.456;2023-03-23T01:09:01;13.40;99.90
9497;DHT22;4786;51.270;4.456;2023-03-23T01:11:28;13.40;99.90
9497;DHT22;4786;51.270;4.456;2023-03-23T01:13:55;13.50;99.90
9497;DHT22;4786;51.270;4.456;2023-03-23T01:16:21;13.40;99.90
9497;DHT22;4786;51.270;4.456;2023-03-23T01:18:47;13.40;99.90
9497;DHT22;4786;51.270;4.456;2023-03-23T01:21:15;13.40;99.90
9497;DHT22;4786;51.270;4.456;2023-03-23T01:23:42;13.50;99.90
9497;DHT22;4786;51.270;4.456;2023-03-23T01:26:10;13.40;99.90
9497;DHT22;4786;51.270;4.456;2023-03-23T01:28:36;13.40;99.90
9497;DHT22;4786;51.270;4.456;2023-03-23T01:31:04;13.40;99.90
9497;DHT22;4786;51.270;4.456;2023-03-23T01:33:31;13.40;99.90
9497;DHT22;4786;51.270;4.456;2023-03-23T01:35:58;13.40;99.90
9497;DHT22;4786;51.270;4.456;2023-03-23T01:38:24;13.40;99.90
9497;DHT22;4786;51.270;4.456;2023-03-23T01:40:50;13.40;99.90
9497;DHT22;4786;51.270;4.456;2023-03-23T01:43:16;13.30;99.90
9497;DHT22;4786;51.270;4.456;2023-03-23T01:45:42;13.40;99.90
9497;DHT22;4786;51.270;4.456;2023-03-23T01:48:16;13.40;99.90
9497;DHT22;4786;51.270;4.456;2023-03-23T01:53:26;13.30;99.90
9497;DHT22;4786;51.270;4.456;2023-03-23T01:55:55;13.40;99.90
9497;DHT22;4786;51.270;4.456;2023-03-23T01:58:26;13.40;99.90
9497;DHT22;4786;51.270;4.456;2023-03-23T02:00:54;13.40;99.90
9497;DHT22;4786;51.270;4.456;2023-03-23T02:03:21;13.40;99.90
9497;DHT22;4786;51.270;4.456;2023-03-23T02:05:49;13.40;99.90
9497;DHT22;4786;51.270;4.456;2023-03-23T02:08:17;13.40;99.90
9497;DHT22;4786;51.270;4.456;2023-03-23T02:10:43;13.40;99.90
9497;DHT22;4786;51.270;4.456;2023-03-23T02:13:11;13.50;99.90
9497;DHT22;4786;51.270;4.456;2023-03-23T02:18:19;13.50;99.90
9497;DHT22;4786;51.270;4.456;2023-03-23T02:26:41;13.40;99.90
9497;DHT22;4786;51.270;4.456;2023-03-23T02:32:12;13.50;99.90
9497;DHT22;4786;51.270;4.456;2023-03-23T02:34:50;13.50;99.90
9497;DHT22;4786;51.270;4.456;2023-03-23T02:37:48;13.40;99.90
9497;DHT22;4786;51.270;4.456;2023-03-23T02:40:17;13.40;99.90
9497;DHT22;4786;51.270;4.456;2023-03-23T02:42:48;13.40;99.90
9497;DHT22;4786;51.270;4.456;2023-03-23T02:45:17;13.30;99.90
9497;DHT22;4786;51.270;4.456;2023-03-23T02:47:46;13.30;99.90
9497;DHT22;4786;51.270;4.456;2023-03-23T02:50:14;13.40;99.90
9497;DHT22;4786;51.270;4.456;2023-03-23T02:52:44;13.40;99.90
9497;DHT22;4786;51.270;4.456;2023-03-23T02:55:11;13.30;99.90
9497;DHT22;4786;51.270;4.456;2023-03-23T02:57:39;13.20;99.90
9497;DHT22;4786;51.270;4.456;2023-03-23T03:00:07;13.20;99.90
9497;DHT22;4786;51.270;4.456;2023-03-23T03:02:37;13.30;99.90
9497;DHT22;4786;51.270;4.456;2023-03-23T03:05:21;13.20;99.90
9497;DHT22;4786;51.270;4.456;2023-03-23T03:13:39;13.20;99.90
9497;DHT22;4786;51.270;4.456;2023-03-23T03:19:03;13.30;99.90
9497;DHT22;4786;51.270;4.456;2023-03-23T03:21:33;13.30;99.90
9497;DHT22;4786;51.270;4.456;2023-03-23T03:24:03;13.30;99.90
9497;DHT22;4786;51.270;4.456;2023-03-23T03:26:31;13.30;99.90
9497;DHT22;4786;51.270;4.456;2023-03-23T03:29:00;13.30;99.90
9497;DHT22;4786;51.270;4.456;2023-03-23T03:31:30;13.20;99.90
9497;DHT22;4786;51.270;4.456;2023-03-23T03:33:58;13.30;99.90
9497;DHT22;4786;51.270;4.456;2023-03-23T03:36:29;13.20;99.90
9497;DHT22;4786;51.270;4.456;2023-03-23T03:39:05;13.20;99.90
9497;DHT22;4786;51.270;4.456;2023-03-23T03:41:34;13.20;99.90
9497;DHT22;4786;51.270;4.456;2023-03-23T03:44:00;13.30;99.90
9497;DHT22;4786;51.270;4.456;2023-03-23T03:46:26;13.40;99.90
9497;DHT22;4786;51.270;4.456;2023-03-23T03:48:55;13.30;99.90
9497;DHT22;4786;51.270;4.456;2023-03-23T03:51:22;13.30;99.90
9497;DHT22;4786;51.270;4.456;2023-03-23T03:53:49;13.30;99.90
9497;DHT22;4786;51.270;4.456;2023-03-23T03:56:14;13.30;99.90
9497;DHT22;4786;51.270;4.456;2023-03-23T03:58:41;13.30;99.90
9497;DHT22;4786;51.270;4.456;2023-03-23T04:01:08;13.30;99.90
9497;DHT22;4786;51.270;4.456;2023-03-23T04:03:38;13.30;99.90
9497;DHT22;4786;51.270;4.456;2023-03-23T04:06:11;13.30;99.90
9497;DHT22;4786;51.270;4.456;2023-03-23T04:08:40;13.20;99.90
9497;DHT22;4786;51.270;4.456;2023-03-23T04:11:07;13.10;99.90
9497;DHT22;4786;51.270;4.456;2023-03-23T04:13:34;13.10;99.90
9497;DHT22;4786;51.270;4.456;2023-03-23T04:16:00;13.00;99.90
9497;DHT22;4786;51.270;4.456;2023-03-23T04:18:26;13.10;99.90
9497;DHT22;4786;51.270;4.456;2023-03-23T04:20:52;13.00;99.90
9497;DHT22;4786;51.270;4.456;2023-03-23T04:23:20;13.00;99.90
9497;DHT22;4786;51.270;4.456;2023-03-23T04:25:48;13.00;99.90
9497;DHT22;4786;51.270;4.456;2023-03-23T04:28:16;13.10;99.90
9497;DHT22;4786;51.270;4.456;2023-03-23T04:30:45;13.10;99.90
9497;DHT22;4786;51.270;4.456;2023-03-23T04:33:12;13.00;99.90
9497;DHT22;4786;51.270;4.456;2023-03-23T04:35:43;13.00;99.90
9497;DHT22;4786;51.270;4.456;2023-03-23T04:38:12;13.10;99.90
9497;DHT22;4786;51.270;4.456;2023-03-23T04:40:40;13.10;99.90
9497;DHT22;4786;51.270;4.456;2023-03-23T04:43:06;13.10;99.90
9497;DHT22;4786;51.270;4.456;2023-03-23T04:45:34;13.10;99.90
9497;DHT22;4786;51.270;4.456;2023-03-23T04:48:03;13.10;99.90
9497;DHT22;4786;51.270;4.456;2023-03-23T04:50:31;13.00;99.90
9497;DHT22;4786;51.270;4.456;2023-03-23T04:52:58;13.10;99.90
9497;DHT22;4786;51.270;4.456;2023-03-23T04:55:25;13.00;99.90
9497;DHT22;4786;51.270;4.456;2023-03-23T04:57:52;13.00;99.90
9497;DHT22;4786;51.270;4.456;2023-03-23T05:00:19;13.00;99.90
9497;DHT22;4786;51.270;4.456;2023-03-23T05:02:46;13.00;99.90
9497;DHT22;4786;51.270;4.456;2023-03-23T05:05:17;12.90;99.90
9497;DHT22;4786;51.270;4.456;2023-03-23T05:07:44;13.00;99.90
9497;DHT22;4786;51.270;4.456;2023-03-23T05:10:11;13.00;99.90
9497;DHT22;4786;51.270;4.456;2023-03-23T05:12:38;13.00;99.90
9497;DHT22;4786;51.270;4.456;2023-03-23T05:15:05;13.00;99.90
9497;DHT22;4786;51.270;4.456;2023-03-23T05:17:32;13.10;99.90
9497;DHT22;4786;51.270;4.456;2023-03-23T05:19:59;13.00;99.90
9497;DHT22;4786;51.270;4.456;2023-03-23T05:22:27;13.10;99.90
9497;DHT22;4786;51.270;4.456;2023-03-23T05:24:53;13.00;99.90
9497;DHT22;4786;51.270;4.456;2023-03-23T05:27:19;13.00;99.90
9497;DHT22;4786;51.270;4.456;2023-03-23T05:29:46;13.00;99.90
9497;DHT22;4786;51.270;4.456;2023-03-23T05:32:16;13.00;99.90
9497;DHT22;4786;51.270;4.456;2023-03-23T05:34:44;13.00;99.90
9497;DHT22;4786;51.270;4.456;2023-03-23T05:37:11;13.00;99.90
9497;DHT22;4786;51.270;4.456;2023-03-23T05:39:38;12.90;99.90
9497;DHT22;4786;51.270;4.456;2023-03-23T05:42:04;12.80;99.90
9497;DHT22;4786;51.270;4.456;2023-03-23T05:44:30;12.90;99.90
9497;DHT22;4786;51.270;4.456;2023-03-23T05:46:56;12.90;99.90
9497;DHT22;4786;51.270;4.456;2023-03-23T05:49:23;12.90;99.90
9497;DHT22;4786;51.270;4.456;2023-03-23T05:51:50;12.90;99.90
9497;DHT22;4786;51.270;4.456;2023-03-23T05:54:16;12.90;99.90
9497;DHT22;4786;51.270;4.456;2023-03-23T05:56:42;13.00;99.90
9497;DHT22;4786;51.270;4.456;2023-03-23T05:59:08;12.90;99.90
9497;DHT22;4786;51.270;4.456;2023-03-23T06:01:35;13.00;99.90
9497;DHT22;4786;51.270;4.456;2023-03-23T06:04:01;13.00;99.90
9497;DHT22;4786;51.270;4.456;2023-03-23T06:06:29;12.90;99.90
9497;DHT22;4786;51.270;4.456;2023-03-23T06:08:55;12.90;99.90
9497;DHT22;4786;51.270;4.456;2023-03-23T06:11:22;12.90;99.90
9497;DHT22;4786;51.270;4.456;2023-03-23T06:13:50;12.90;99.90
9497;DHT22;4786;51.270;4.456;2023-03-23T06:16:16;12.80;99.90
9497;DHT22;4786;51.270;4.456;2023-03-23T06:18:42;12.80;99.90
9497;DHT22;4786;51.270;4.456;2023-03-23T06:21:09;12.80;99.90
9497;DHT22;4786;51.270;4.456;2023-03-23T06:23:35;12.80;99.90
9497;DHT22;4786;51.270;4.456;2023-03-23T06:26:05;12.70;99.90
9497;DHT22;4786;51.270;4.456;2023-03-23T06:28:32;12.60;99.90
9497;DHT22;4786;51.270;4.456;2023-03-23T06:31:00;12.60;99.90
9497;DHT22;4786;51.270;4.456;2023-03-23T06:33:27;12.60;99.90
9497;DHT22;4786;51.270;4.456;2023-03-23T06:35:53;12.60;99.90
9497;DHT22;4786;51.270;4.456;2023-03-23T06:38:19;12.50;99.90
9497;DHT22;4786;51.270;4.456;2023-03-23T06:40:45;12.40;99.90
9497;DHT22;4786;51.270;4.456;2023-03-23T06:43:12;12.20;99.90
9497;DHT22;4786;51.270;4.456;2023-03-23T06:45:39;12.00;99.90
9497;DHT22;4786;51.270;4.456;2023-03-23T06:48:05;11.80;99.90
9497;DHT22;4786;51.270;4.456;2023-03-23T06:50:31;11.80;99.90
9497;DHT22;4786;51.270;4.456;2023-03-23T06:52:57;11.80;99.90
9497;DHT22;4786;51.270;4.456;2023-03-23T06:55:23;11.70;99.90
9497;DHT22;4786;51.270;4.456;2023-03-23T06:57:49;11.70;99.90
9497;DHT22;4786;51.270;4.456;2023-03-23T07:00:15;11.60;99.90
9497;DHT22;4786;51.270;4.456;2023-03-23T07:02:43;11.60;99.90
9497;DHT22;4786;51.270;4.456;2023-03-23T07:05:11;11.60;99.90
9497;DHT22;4786;51.270;4.456;2023-03-23T07:07:37;11.60;99.90
9497;DHT22;4786;51.270;4.456;2023-03-23T07:10:05;11.60;99.90
9497;DHT22;4786;51.270;4.456;2023-03-23T07:12:32;11.50;99.90
9497;DHT22;4786;51.270;4.456;2023-03-23T07:14:58;11.60;99.90
9497;DHT22;4786;51.270;4.456;2023-03-23T07:17:24;11.60;99.90
9497;DHT22;4786;51.270;4.456;2023-03-23T07:19:50;11.60;99.90
9497;DHT22;4786;51.270;4.456;2023-03-23T07:22:16;11.50;99.90
9497;DHT22;4786;51.270;4.456;2023-03-23T07:24:42;11.50;99.90
9497;DHT22;4786;51.270;4.456;2023-03-23T07:27:08;11.60;99.90
9497;DHT22;4786;51.270;4.456;2023-03-23T07:29:35;11.50;99.90
9497;DHT22;4786;51.270;4.456;2023-03-23T07:32:04;11.50;99.90
9497;DHT22;4786;51.270;4.456;2023-03-23T07:34:30;11.50;99.90
9497;DHT22;4786;51.270;4.456;2023-03-23T07:36:57;11.40;99.90
9497;DHT22;4786;51.270;4.456;2023-03-23T07:39:23;11.40;99.90
9497;DHT22;4786;51.270;4.456;2023-03-23T07:41:49;11.30;99.90
9497;DHT22;4786;51.270;4.456;2023-03-23T07:44:15;11.30;99.90
9497;DHT22;4786;51.270;4.456;2023-03-23T07:46:41;11.30;99.90
9497;DHT22;4786;51.270;4.456;2023-03-23T07:49:08;11.20;99.90
9497;DHT22;4786;51.270;4.456;2023-03-23T07:51:34;11.30;99.90
9497;DHT22;4786;51.270;4.456;2023-03-23T07:54:01;11.30;99.90
9497;DHT22;4786;51.270;4.456;2023-03-23T07:56:30;11.30;99.90
9497;DHT22;4786;51.270;4.456;2023-03-23T07:59:03;11.30;99.90
9497;DHT22;4786;51.270;4.456;2023-03-23T08:01:30;11.40;99.90
9497;DHT22;4786;51.270;4.456;2023-03-23T08:03:56;11.40;99.90
9497;DHT22;4786;51.270;4.456;2023-03-23T08:06:23;11.40;99.90
9497;DHT22;4786;51.270;4.456;2023-03-23T08:08:50;11.40;99.90
9497;DHT22;4786;51.270;4.456;2023-03-23T08:11:17;11.50;99.90
9497;DHT22;4786;51.270;4.456;2023-03-23T08:13:44;11.60;99.90
9497;DHT22;4786;51.270;4.456;2023-03-23T08:16:11;11.60;99.90
9497;DHT22;4786;51.270;4.456;2023-03-23T08:18:37;11.60;99.90
9497;DHT22;4786;51.270;4.456;2023-03-23T08:21:05;11.60;99.90
9497;DHT22;4786;51.270;4.456;2023-03-23T08:23:31;11.70;99.90
9497;DHT22;4786;51.270;4.456;2023-03-23T08:25:58;11.60;99.90
9497;DHT22;4786;51.270;4.456;2023-03-23T08:28:25;11.60;99.90
9497;DHT22;4786;51.270;4.456;2023-03-23T08:30:51;11.70;99.90
9497;DHT22;4786;51.270;4.456;2023-03-23T08:33:17;11.70;99.90
9497;DHT22;4786;51.270;4.456;2023-03-23T08:35:43;11.80;99.90
9497;DHT22;4786;51.270;4.456;2023-03-23T08:38:10;12.00;99.90
9497;DHT22;4786;51.270;4.456;2023-03-23T08:40:37;12.10;99.90
9497;DHT22;4786;51.270;4.456;2023-03-23T08:43:02;12.10;99.90
9497;DHT22;4786;51.270;4.456;2023-03-23T08:45:28;12.10;99.90
9497;DHT22;4786;51.270;4.456;2023-03-23T08:47:54;12.20;99.90
9497;DHT22;4786;51.270;4.456;2023-03-23T08:50:24;12.30;99.90
9497;DHT22;4786;51.270;4.456;2023-03-23T08:52:51;12.60;99.90
9497;DHT22;4786;51.270;4.456;2023-03-23T08:55:18;12.90;99.90
9497;DHT22;4786;51.270;4.456;2023-03-23T08:57:44;13.10;99.90
9497;DHT22;4786;51.270;4.456;2023-03-23T09:00:14;13.40;99.90
9497;DHT22;4786;51.270;4.456;2023-03-23T09:02:43;13.40;99.90
9497;DHT22;4786;51.270;4.456;2023-03-23T09:05:10;13.50;99.90
9497;DHT22;4786;51.270;4.456;2023-03-23T09:07:38;13.70;99.90
9497;DHT22;4786;51.270;4.456;2023-03-23T09:10:06;13.70;99.90
9497;DHT22;4786;51.270;4.456;2023-03-23T09:12:32;13.90;99.90
9497;DHT22;4786;51.270;4.456;2023-03-23T09:14:58;13.80;99.90
9497;DHT22;4786;51.270;4.456;2023-03-23T09:17:24;13.80;99.90
9497;DHT22;4786;51.270;4.456;2023-03-23T09:19:51;14.00;99.90
9497;DHT22;4786;51.270;4.456;2023-03-23T09:22:16;14.20;99.90
9497;DHT22;4786;51.270;4.456;2023-03-23T09:24:45;14.30;99.90
9497;DHT22;4786;51.270;4.456;2023-03-23T09:27:12;14.60;99.90
9497;DHT22;4786;51.270;4.456;2023-03-23T09:29:38;14.70;99.90
9497;DHT22;4786;51.270;4.456;2023-03-23T09:32:04;15.00;99.90
9497;DHT22;4786;51.270;4.456;2023-03-23T09:34:29;15.10;99.90
9497;DHT22;4786;51.270;4.456;2023-03-23T09:36:55;15.20;99.90
9497;DHT22;4786;51.270;4.456;2023-03-23T09:39:22;15.20;99.90
9497;DHT22;4786;51.270;4.456;2023-03-23T09:42:08;15.30;99.90
9497;DHT22;4786;51.270;4.456;2023-03-23T09:45:03;15.40;99.90
9497;DHT22;4786;51.270;4.456;2023-03-23T09:50:28;15.60;99.90
9497;DHT22;4786;51.270;4.456;2023-03-23T09:53:16;16.00;99.90
9497;DHT22;4786;51.270;4.456;2023-03-23T09:55:43;16.30;99.90
9497;DHT22;4786;51.270;4.456;2023-03-23T09:58:26;16.50;99.90
9497;DHT22;4786;51.270;4.456;2023-03-23T10:03:37;16.90;99.90
9497;DHT22;4786;51.270;4.456;2023-03-23T10:06:06;16.90;99.90
9497;DHT22;4786;51.270;4.456;2023-03-23T10:08:33;16.80;99.90
9497;DHT22;4786;51.270;4.456;2023-03-23T10:11:14;16.80;99.90
9497;DHT22;4786;51.270;4.456;2023-03-23T10:16:19;16.40;99.90
9497;DHT22;4786;51.270;4.456;2023-03-23T10:18:53;16.30;99.90
9497;DHT22;4786;51.270;4.456;2023-03-23T10:21:23;16.10;99.90
9497;DHT22;4786;51.270;4.456;2023-03-23T10:23:58;16.00;99.90
9497;DHT22;4786;51.270;4.456;2023-03-23T10:27:26;16.10;99.90
9497;DHT22;4786;51.270;4.456;2023-03-23T10:29:36;16.20;99.90
9497;DHT22;4786;51.270;4.456;2023-03-23T10:32:34;16.20;99.90
9497;DHT22;4786;51.270;4.456;2023-03-23T10:35:05;16.20;99.90
9497;DHT22;4786;51.270;4.456;2023-03-23T10:37:37;16.20;99.90
9497;DHT22;4786;51.270;4.456;2023-03-23T10:40:06;16.10;99.90
9497;DHT22;4786;51.270;4.456;2023-03-23T10:42:39;16.00;99.90
9497;DHT22;4786;51.270;4.456;2023-03-23T10:45:19;15.80;99.90
9497;DHT22;4786;51.270;4.456;2023-03-23T10:47:51;15.60;99.90
9497;DHT22;4786;51.270;4.456;2023-03-23T10:50:26;15.50;99.90
9497;DHT22;4786;51.270;4.456;2023-03-23T10:52:53;15.40;99.90
9497;DHT22;4786;51.270;4.456;2023-03-23T10:55:22;15.50;99.90
9497;DHT22;4786;51.270;4.456;2023-03-23T10:58:05;15.40;99.90
9497;DHT22;4786;51.270;4.456;2023-03-23T11:00:31;15.40;99.90
9497;DHT22;4786;51.270;4.456;2023-03-23T11:06:26;15.40;99.90
9497;DHT22;4786;51.270;4.456;2023-03-23T11:08:57;15.40;99.90
9497;DHT22;4786;51.270;4.456;2023-03-23T11:11:29;15.50;99.90
9497;DHT22;4786;51.270;4.456;2023-03-23T11:14:24;15.70;99.90
9497;DHT22;4786;51.270;4.456;2023-03-23T11:16:53;15.90;99.90
9497;DHT22;4786;51.270;4.456;2023-03-23T11:19:31;16.00;99.90
9497;DHT22;4786;51.270;4.456;2023-03-23T11:24:32;15.90;99.90
9497;DHT22;4786;51.270;4.456;2023-03-23T11:27:00;16.00;99.90
9497;DHT22;4786;51.270;4.456;2023-03-23T11:29:27;15.90;99.90
9497;DHT22;4786;51.270;4.456;2023-03-23T11:32:06;15.90;99.90
9497;DHT22;4786;51.270;4.456;2023-03-23T11:34:40;15.90;99.90
9497;DHT22;4786;51.270;4.456;2023-03-23T11:37:33;15.90;99.90
9497;DHT22;4786;51.270;4.456;2023-03-23T11:40:14;15.90;99.90
9497;DHT22;4786;51.270;4.456;2023-03-23T11:48:18;15.90;99.90
9497;DHT22;4786;51.270;4.456;2023-03-23T11:53:33;15.80;99.90
9497;DHT22;4786;51.270;4.456;2023-03-23T11:58:34;15.70;99.90
9497;DHT22;4786;51.270;4.456;2023-03-23T12:01:06;15.60;99.90
9497;DHT22;4786;51.270;4.456;2023-03-23T12:14:50;16.10;99.90
9497;DHT22;4786;51.270;4.456;2023-03-23T12:17:21;16.30;99.90
9497;DHT22;4786;51.270;4.456;2023-03-23T12:20:05;16.50;99.90
9497;DHT22;4786;51.270;4.456;2023-03-23T12:22:55;16.40;99.90
9497;DHT22;4786;51.270;4.456;2023-03-23T12:30:49;16.10;99.90
9497;DHT22;4786;51.270;4.456;2023-03-23T12:36:29;15.80;99.90
9497;DHT22;4786;51.270;4.456;2023-03-23T12:44:47;15.00;99.90
9497;DHT22;4786;51.270;4.456;2023-03-23T12:47:53;14.70;99.90
9497;DHT22;4786;51.270;4.456;2023-03-23T12:51:00;14.50;99.90
9497;DHT22;4786;51.270;4.456;2023-03-23T12:53:38;14.40;99.90
9497;DHT22;4786;51.270;4.456;2023-03-23T12:56:30;14.70;99.90
9497;DHT22;4786;51.270;4.456;2023-03-23T13:01:59;15.20;99.90
9497;DHT22;4786;51.270;4.456;2023-03-23T13:04:31;15.30;99.90
9497;DHT22;4786;51.270;4.456;2023-03-23T13:07:01;15.50;99.90
9497;DHT22;4786;51.270;4.456;2023-03-23T13:12:19;15.90;99.90
9497;DHT22;4786;51.270;4.456;2023-03-23T13:15:01;16.00;99.90
9497;DHT22;4786;51.270;4.456;2023-03-23T13:17:44;15.90;99.90
9497;DHT22;4786;51.270;4.456;2023-03-23T13:23:25;15.80;99.90
9497;DHT22;4786;51.270;4.456;2023-03-23T13:26:01;15.60;99.90
9497;DHT22;4786;51.270;4.456;2023-03-23T13:28:30;15.30;99.90
9497;DHT22;4786;51.270;4.456;2023-03-23T13:31:02;15.20;99.90
9497;DHT22;4786;51.270;4.456;2023-03-23T13:33:33;15.20;99.90
9497;DHT22;4786;51.270;4.456;2023-03-23T13:36:14;15.10;99.90
9497;DHT22;4786;51.270;4.456;2023-03-23T13:38:47;15.20;99.90
9497;DHT22;4786;51.270;4.456;2023-03-23T13:41:16;15.30;99.90
9497;DHT22;4786;51.270;4.456;2023-03-23T13:43:43;15.30;99.90
9497;DHT22;4786;51.270;4.456;2023-03-23T13:46:30;15.30;99.90
9497;DHT22;4786;51.270;4.456;2023-03-23T13:49:18;15.30;99.90
9497;DHT22;4786;51.270;4.456;2023-03-23T13:54:42;15.50;99.90
9497;DHT22;4786;51.270;4.456;2023-03-23T13:57:33;15.70;99.90
9497;DHT22;4786;51.270;4.456;2023-03-23T14:00:24;15.90;99.90
9497;DHT22;4786;51.270;4.456;2023-03-23T14:02:51;16.10;99.90
9497;DHT22;4786;51.270;4.456;2023-03-23T14:07:59;16.00;99.90
9497;DHT22;4786;51.270;4.456;2023-03-23T14:10:39;16.00;99.90
9497;DHT22;4786;51.270;4.456;2023-03-23T14:13:16;16.10;99.90
9497;DHT22;4786;51.270;4.456;2023-03-23T14:15:54;16.00;99.90
9497;DHT22;4786;51.270;4.456;2023-03-23T14:18:22;15.80;99.90
9497;DHT22;4786;51.270;4.456;2023-03-23T14:20:49;15.90;99.90
9497;DHT22;4786;51.270;4.456;2023-03-23T14:23:18;15.80;99.90
9497;DHT22;4786;51.270;4.456;2023-03-23T14:25:44;15.80;99.90
9497;DHT22;4786;51.270;4.456;2023-03-23T14:28:18;15.90;99.90
9497;DHT22;4786;51.270;4.456;2023-03-23T14:30:46;15.80;99.90
9497;DHT22;4786;51.270;4.456;2023-03-23T14:33:13;15.80;99.90
9497;DHT22;4786;51.270;4.456;2023-03-23T14:35:41;15.70;99.90
9497;DHT22;4786;51.270;4.456;2023-03-23T14:38:21;15.40;99.90
9497;DHT22;4786;51.270;4.456;2023-03-23T14:40:50;15.30;99.90
9497;DHT22;4786;51.270;4.456;2023-03-23T14:43:20;15.20;99.90
9497;DHT22;4786;51.270;4.456;2023-03-23T14:45:52;15.10;99.90
9497;DHT22;4786;51.270;4.456;2023-03-23T14:48:20;15.20;99.90
9497;DHT22;4786;51.270;4.456;2023-03-23T14:50:51;15.30;99.90
9497;DHT22;4786;51.270;4.456;2023-03-23T14:53:25;15.30;99.90
9497;DHT22;4786;51.270;4.456;2023-03-23T14:55:53;15.20;99.90
9497;DHT22;4786;51.270;4.456;2023-03-23T14:58:22;15.30;99.90
9497;DHT22;4786;51.270;4.456;2023-03-23T15:01:06;15.40;99.90
9497;DHT22;4786;51.270;4.456;2023-03-23T15:03:41;15.40;99.90
9497;DHT22;4786;51.270;4.456;2023-03-23T15:06:14;15.40;99.90
9497;DHT22;4786;51.270;4.456;2023-03-23T15:08:41;15.40;99.90
9497;DHT22;4786;51.270;4.456;2023-03-23T15:11:23;15.40;99.90
9497;DHT22;4786;51.270;4.456;2023-03-23T15:13:52;15.50;99.90
9497;DHT22;4786;51.270;4.456;2023-03-23T15:16:29;15.50;99.90
9497;DHT22;4786;51.270;4.456;2023-03-23T15:18:59;15.50;99.90
9497;DHT22;4786;51.270;4.456;2023-03-23T15:21:50;15.50;99.90
9497;DHT22;4786;51.270;4.456;2023-03-23T15:26:52;15.60;99.90
9497;DHT22;4786;51.270;4.456;2023-03-23T15:29:21;15.60;99.90
9497;DHT22;4786;51.270;4.456;2023-03-23T15:31:52;15.50;99.90
9497;DHT22;4786;51.270;4.456;2023-03-23T15:36:54;15.60;99.90
9497;DHT22;4786;51.270;4.456;2023-03-23T15:39:21;15.60;99.90
9497;DHT22;4786;51.270;4.456;2023-03-23T15:41:50;15.60;99.90
9497;DHT22;4786;51.270;4.456;2023-03-23T15:44:29;15.60;99.90
9497;DHT22;4786;51.270;4.456;2023-03-23T15:47:22;15.50;99.90
9497;DHT22;4786;51.270;4.456;2023-03-23T15:50:02;15.60;99.90
9497;DHT22;4786;51.270;4.456;2023-03-23T15:52:28;15.50;99.90
9497;DHT22;4786;51.270;4.456;2023-03-23T15:54:54;15.50;99.90
9497;DHT22;4786;51.270;4.456;2023-03-23T15:57:20;15.50;99.90
9497;DHT22;4786;51.270;4.456;2023-03-23T15:59:46;15.40;99.90
9497;DHT22;4786;51.270;4.456;2023-03-23T16:02:20;15.40;99.90
9497;DHT22;4786;51.270;4.456;2023-03-23T16:04:47;15.40;99.90
9497;DHT22;4786;51.270;4.456;2023-03-23T16:07:13;15.40;99.90
9497;DHT22;4786;51.270;4.456;2023-03-23T16:09:39;15.40;99.90
9497;DHT22;4786;51.270;4.456;2023-03-23T16:12:10;15.40;99.90
9497;DHT22;4786;51.270;4.456;2023-03-23T16:14:38;15.40;99.90
9497;DHT22;4786;51.270;4.456;2023-03-23T16:17:05;15.40;99.90
9497;DHT22;4786;51.270;4.456;2023-03-23T16:19:31;15.40;99.90
9497;DHT22;4786;51.270;4.456;2023-03-23T16:21:57;15.40;99.90
9497;DHT22;4786;51.270;4.456;2023-03-23T16:24:23;15.40;99.90
9497;DHT22;4786;51.270;4.456;2023-03-23T16:26:49;15.40;99.90
9497;DHT22;4786;51.270;4.456;2023-03-23T16:29:15;15.40;99.90
9497;DHT22;4786;51.270;4.456;2023-03-23T16:31:42;15.40;99.90
9497;DHT22;4786;51.270;4.456;2023-03-23T16:34:08;15.40;99.90
9497;DHT22;4786;51.270;4.456;2023-03-23T16:36:35;15.20;99.90
9497;DHT22;4786;51.270;4.456;2023-03-23T16:39:01;14.90;99.90
9497;DHT22;4786;51.270;4.456;2023-03-23T16:41:27;14.70;99.90
9497;DHT22;4786;51.270;4.456;2023-03-23T16:43:53;14.50;99.90
9497;DHT22;4786;51.270;4.456;2023-03-23T16:46:19;14.40;99.90
9497;DHT22;4786;51.270;4.456;2023-03-23T16:48:44;14.40;99.90
9497;DHT22;4786;51.270;4.456;2023-03-23T16:51:10;14.30;99.90
9497;DHT22;4786;51.270;4.456;2023-03-23T16:53:36;14.30;99.90
9497;DHT22;4786;51.270;4.456;2023-03-23T16:56:02;14.20;99.90
9497;DHT22;4786;51.270;4.456;2023-03-23T16:58:28;14.30;99.90
9497;DHT22;4786;51.270;4.456;2023-03-23T17:00:54;14.30;99.90
9497;DHT22;4786;51.270;4.456;2023-03-23T17:03:21;14.20;99.90
9497;DHT22;4786;51.270;4.456;2023-03-23T17:05:48;14.30;99.90
9497;DHT22;4786;51.270;4.456;2023-03-23T17:08:16;14.20;99.90
9497;DHT22;4786;51.270;4.456;2023-03-23T17:10:42;14.20;99.90
9497;DHT22;4786;51.270;4.456;2023-03-23T17:13:09;14.30;99.90
9497;DHT22;4786;51.270;4.456;2023-03-23T17:15:40;14.30;99.90
9497;DHT22;4786;51.270;4.456;2023-03-23T17:18:07;14.30;99.90
9497;DHT22;4786;51.270;4.456;2023-03-23T17:20:34;14.40;99.90
9497;DHT22;4786;51.270;4.456;2023-03-23T17:23:01;14.40;99.90
9497;DHT22;4786;51.270;4.456;2023-03-23T17:25:27;14.40;99.90
9497;DHT22;4786;51.270;4.456;2023-03-23T17:27:55;14.40;99.90
9497;DHT22;4786;51.270;4.456;2023-03-23T17:30:21;14.40;99.90
9497;DHT22;4786;51.270;4.456;2023-03-23T17:32:47;14.40;99.90
9497;DHT22;4786;51.270;4.456;2023-03-23T17:35:14;14.50;99.90
9497;DHT22;4786;51.270;4.456;2023-03-23T17:37:41;14.50;99.90
9497;DHT22;4786;51.270;4.456;2023-03-23T17:40:08;14.50;99.90
9497;DHT22;4786;51.270;4.456;2023-03-23T17:42:39;14.50;99.90
9497;DHT22;4786;51.270;4.456;2023-03-23T17:45:07;14.60;99.90
9497;DHT22;4786;51.270;4.456;2023-03-23T17:47:33;14.60;99.90
9497;DHT22;4786;51.270;4.456;2023-03-23T17:50:00;14.60;99.90
9497;DHT22;4786;51.270;4.456;2023-03-23T17:52:25;14.60;99.90